Time;durP1;ratioP1;P1;durP2;ratioP2;P2;SDS_P1;SDS_P2;PMS_P1;PMS_P2;Temp;Humidity;BMP_temperature;BMP_pressure;BME280_temperature;BME280_humidity;BME280_pressure;Samples;Min_cycle;Max_cycle;Signal;HPM_P1;HPM_P2
2022/10/24 00:08:39;;;;;;;16.85;9.88;;;;;;;10.96;78.13;99996.09;30738097;28;96756;-65
2022/10/24 00:23:40;;;;;;;15.70;9.30;;;;;;;10.89;78.62;100043.94;30735182;28;96779;-65
2022/10/24 00:38:40;;;;;;;17.92;9.65;;;;;;;10.94;78.89;99987.44;30734709;28;112462;-65
2022/10/24 00:53:46;;;;;;;16.60;9.55;;;;;;;11.01;78.94;99999.88;30733566;28;97765;-66
2022/10/24 01:09:16;;;;;;;15.13;9.27;;;;;;;11.15;79.08;99974.28;30732453;28;96893;-65
2022/10/24 01:24:39;;;;;;;16.20;10.40;;;;;;;11.10;78.88;99955.34;30713321;28;96714;-65
2022/10/24 01:39:46;;;;;;;14.30;9.13;;;;;;;11.04;79.67;99913.38;30738596;28;96988;-65
2022/10/24 01:54:47;;;;;;;13.10;9.53;;;;;;;11.03;79.15;99898.44;30750522;28;96656;-65
2022/10/24 02:09:53;;;;;;;15.33;8.83;;;;;;;11.09;80.34;99894.22;30749378;28;96704;-65
2022/10/24 02:25:06;;;;;;;14.43;8.87;;;;;;;11.06;79.94;99910.53;30748026;28;96801;-65
2022/10/24 02:40:08;;;;;;;14.00;9.00;;;;;;;11.03;80.14;99894.91;30745419;28;96756;-65
2022/10/24 02:55:10;;;;;;;10.67;8.47;;;;;;;11.10;79.97;99893.19;30743130;28;96664;-65
2022/10/24 03:10:10;;;;;;;9.27;6.63;;;;;;;11.17;80.37;99888.81;30742611;28;96723;-65
2022/10/24 03:25:11;;;;;;;7.38;5.63;;;;;;;11.35;80.32;99885.78;30742152;28;106971;-65
2022/10/24 03:40:11;;;;;;;7.70;5.13;;;;;;;11.41;80.43;99871.69;30739038;28;97409;-65
2022/10/24 03:55:12;;;;;;;8.00;5.55;;;;;;;11.62;79.79;99862.97;30737392;28;97293;-66
2022/10/24 04:10:12;;;;;;;7.32;5.10;;;;;;;11.79;79.96;99852.09;30736405;28;96686;-66
2022/10/24 04:25:13;;;;;;;8.48;4.75;;;;;;;12.01;79.54;99866.34;30732342;28;107353;-65
2022/10/24 04:40:14;;;;;;;6.43;4.53;;;;;;;12.04;79.23;99878.50;30730861;28;97651;-65
2022/10/24 04:55:14;;;;;;;7.25;3.80;;;;;;;12.12;79.62;99889.88;30730781;28;96767;-65
2022/10/24 05:10:15;;;;;;;9.32;4.45;;;;;;;12.13;78.96;99896.06;30733781;28;96734;-65
2022/10/24 05:25:16;;;;;;;7.30;5.67;;;;;;;12.02;78.97;99895.53;30750702;28;96933;-65
2022/10/24 05:40:17;;;;;;;5.83;4.00;;;;;;;12.10;79.32;99891.94;30749729;28;96828;-64
2022/10/24 05:55:17;;;;;;;10.55;7.13;;;;;;;12.10;78.58;99915.13;30741944;28;99049;-62
2022/10/24 06:10:17;;;;;;;18.80;13.75;;;;;;;12.42;79.06;99918.38;30746286;28;98002;-63
2022/10/24 06:25:18;;;;;;;8.15;4.78;;;;;;;12.95;78.47;99916.22;30742939;28;103634;-62
2022/10/24 06:40:18;;;;;;;7.68;5.35;;;;;;;13.16;77.69;99944.78;30742194;28;96768;-62
2022/10/24 06:55:19;;;;;;;10.13;4.05;;;;;;;13.40;77.09;99934.69;30738649;28;96648;-62
2022/10/24 07:25:30;;;;;;;4.57;2.80;;;;;;;14.15;76.83;99934.91;31423559;22;98889;-63
2022/10/24 07:40:30;;;;;;;11.38;4.43;;;;;;;14.89;76.16;99954.72;30978626;28;113816;-63
2022/10/24 07:55:30;;;;;;;11.48;3.22;;;;;;;15.78;74.90;99959.84;30977607;28;104482;-65
2022/10/24 08:10:31;;;;;;;4.50;2.55;;;;;;;16.51;72.82;99956.09;30979338;28;100395;-63
2022/10/24 08:25:31;;;;;;;4.63;2.60;;;;;;;16.50;71.79;99946.38;30976061;28;99285;-62
2022/10/24 08:40:31;;;;;;;7.68;2.38;;;;;;;16.80;70.67;99943.09;30976833;28;96669;-63
2022/10/24 08:55:38;;;;;;;4.38;2.00;;;;;;;17.62;69.32;99944.09;30974994;28;96715;-62
2022/10/24 09:11:00;;;;;;;17.77;8.20;;;;;;;18.61;66.70;99936.69;30972291;28;96786;-63
2022/10/24 09:26:04;;;;;;;4.17;2.10;;;;;;;29.27;52.14;99942.06;30973893;28;96660;-63
2022/10/24 09:41:26;;;;;;;6.00;1.43;;;;;;;36.34;34.42;99948.66;30970954;28;98787;-62
2022/10/24 09:56:55;;;;;;;5.53;1.30;;;;;;;36.98;24.48;99944.16;30972380;28;96684;-62
2022/10/24 10:11:57;;;;;;;3.17;1.30;;;;;;;40.85;20.36;99938.41;30973617;28;97061;-64
2022/10/24 10:26:58;;;;;;;5.87;1.60;;;;;;;32.96;26.15;99924.81;30988083;28;98273;-63
2022/10/24 10:42:42;;;;;;;3.55;1.23;;;;;;;30.50;28.96;99927.81;30987088;28;112479;-61
2022/10/24 10:57:49;;;;;;;3.27;1.30;;;;;;;29.40;32.39;99913.03;30955052;28;97058;-65
2022/10/24 11:12:50;;;;;;;8.20;1.80;;;;;;;38.80;21.86;99908.25;30983541;28;96671;-64
2022/10/24 11:28:14;;;;;;;5.57;1.40;;;;;;;37.80;21.37;99896.59;30983039;28;97378;-65
2022/10/24 11:43:22;;;;;;;4.67;1.70;;;;;;;39.68;19.88;99881.50;30982244;28;97525;-62
2022/10/24 11:58:25;;;;;;;5.50;2.07;;;;;;;39.71;19.60;99866.78;30978162;28;96700;-65
2022/10/24 12:13:56;;;;;;;8.63;1.70;;;;;;;42.37;16.99;99857.22;30987791;28;97198;-62
2022/10/24 12:28:59;;;;;;;6.07;1.50;;;;;;;39.07;19.77;99840.31;30972930;28;98977;-63
2022/10/24 12:44:33;;;;;;;6.77;1.50;;;;;;;38.21;20.42;99827.59;30972423;28;97563;-63
2022/10/24 12:59:48;;;;;;;7.23;1.70;;;;;;;38.28;21.33;99802.72;30972434;28;97147;-66
2022/10/24 13:15:26;;;;;;;6.37;1.83;;;;;;;33.05;25.76;99828.19;30968831;28;97029;-61
2022/10/24 13:30:27;;;;;;;8.77;2.10;;;;;;;27.65;32.01;99846.06;30970344;28;97210;-63
2022/10/24 13:45:51;;;;;;;4.93;2.05;;;;;;;23.62;39.31;99840.47;31016331;28;97883;-61
2022/10/24 14:01:03;;;;;;;7.50;2.50;;;;;;;21.55;43.87;99856.00;30999058;28;98163;-61
2022/10/24 14:16:06;;;;;;;6.63;3.00;;;;;;;20.41;47.22;99874.25;30931360;28;97868;-65
2022/10/24 14:31:17;;;;;;;4.70;2.47;;;;;;;19.50;50.55;99855.94;30992246;28;98290;-64
2022/10/24 14:46:31;;;;;;;5.63;2.73;;;;;;;18.76;53.05;99868.00;30983086;28;98443;-62
2022/10/24 15:01:32;;;;;;;8.53;2.90;;;;;;;18.24;55.68;99858.59;30982338;28;97056;-63
2022/10/24 15:16:38;;;;;;;18.00;8.10;;;;;;;17.91;57.39;99846.38;30984007;28;96690;-63
2022/10/24 15:31:41;;;;;;;10.63;3.97;;;;;;;17.64;58.93;99867.41;30984240;28;96715;-62
2022/10/24 15:46:42;;;;;;;10.47;5.43;;;;;;;17.38;60.06;99887.38;30983062;28;97262;-64
2022/10/24 16:01:48;;;;;;;5.67;3.40;;;;;;;17.16;61.17;99893.16;30980257;28;96751;-63
2022/10/24 16:16:48;;;;;;;8.47;4.27;;;;;;;16.88;62.51;99878.25;30976661;28;96798;-66
2022/10/24 16:31:49;;;;;;;12.15;5.22;;;;;;;16.44;64.54;99880.00;30920866;28;98081;-64
2022/10/24 16:46:52;;;;;;;11.77;5.43;;;;;;;16.18;65.96;99886.38;30841688;28;97487;-65
2022/10/24 17:01:52;;;;;;;15.10;8.33;;;;;;;16.01;67.39;99880.66;30840684;28;97411;-65
2022/10/24 17:16:53;;;;;;;13.98;7.30;;;;;;;15.97;68.23;99909.00;30912613;28;112545;-64
2022/10/24 17:31:54;;;;;;;14.50;7.40;;;;;;;15.94;68.92;99915.63;30963607;28;98344;-65
2022/10/24 17:46:54;;;;;;;15.13;6.60;;;;;;;16.03;69.46;99922.41;30961674;28;97502;-64
2022/10/24 18:01:54;;;;;;;14.85;7.15;;;;;;;15.74;70.34;99912.94;30959655;28;97361;-65
2022/10/24 18:16:55;;;;;;;11.48;7.22;;;;;;;15.43;71.14;99898.34;30959365;28;96750;-65
2022/10/24 18:31:55;;;;;;;11.88;9.40;;;;;;;15.07;72.50;99903.13;30978151;28;111075;-64
2022/10/24 18:47:00;;;;;;;10.77;6.75;;;;;;;14.96;73.03;99932.44;30975496;28;96817;-64
2022/10/24 19:02:06;;;;;;;8.97;5.67;;;;;;;15.12;72.88;99937.41;30972394;28;97532;-63
2022/10/24 19:17:12;;;;;;;8.07;6.30;;;;;;;15.03;72.67;99944.00;30976899;28;97496;-63
2022/10/24 19:32:13;;;;;;;9.33;5.73;;;;;;;15.04;73.06;99933.06;30975593;28;96733;-63
2022/10/24 19:47:14;;;;;;;9.07;4.55;;;;;;;14.96;73.13;99949.34;30973546;28;97195;-63
2022/10/24 20:02:14;;;;;;;9.20;4.60;;;;;;;14.93;73.19;99959.69;30981917;28;96819;-63
2022/10/24 20:17:15;;;;;;;11.77;5.10;;;;;;;14.87;73.58;99946.06;30981275;28;109321;-64
2022/10/24 20:32:15;;;;;;;8.80;5.68;;;;;;;14.85;74.15;99956.16;30979086;28;96618;-64
2022/10/24 20:47:15;;;;;;;8.90;5.43;;;;;;;14.83;74.33;99960.91;30978197;28;115679;-64
2022/10/24 21:02:16;;;;;;;12.15;6.65;;;;;;;14.72;74.60;99964.16;30977332;28;110219;-65
2022/10/24 21:17:16;;;;;;;10.63;7.05;;;;;;;14.63;75.17;99957.38;30974947;28;115317;-64
2022/10/24 21:32:16;;;;;;;11.73;7.40;;;;;;;14.56;75.21;99954.63;30975463;28;107632;-64
2022/10/24 21:47:17;;;;;;;9.73;7.55;;;;;;;14.30;75.44;99971.47;30974118;28;116135;-64
2022/10/24 22:02:17;;;;;;;14.23;7.40;;;;;;;14.27;75.92;99971.84;30991804;28;113177;-64
2022/10/24 22:17:17;;;;;;;8.98;6.60;;;;;;;14.25;75.97;99963.19;30994110;28;96762;-64
2022/10/24 22:32:18;;;;;;;10.75;7.35;;;;;;;14.09;76.33;99980.41;30992786;28;109882;-65
2022/10/24 22:47:39;;;;;;;9.35;7.07;;;;;;;13.94;76.16;99986.75;30991620;28;97655;-64
2022/10/24 23:02:44;;;;;;;11.73;6.60;;;;;;;13.67;76.71;99977.72;30989577;28;96722;-65
2022/10/24 23:17:45;;;;;;;8.67;5.17;;;;;;;13.39;76.62;99972.34;30988694;28;97413;-64
2022/10/24 23:32:47;;;;;;;6.73;4.73;;;;;;;13.31;77.62;99981.31;30987630;28;96617;-64
2022/10/24 23:47:53;;;;;;;7.13;3.80;;;;;;;13.15;77.21;99993.94;30985886;28;96696;-64
